sensor_id;sensor_type;location;lat;lon;timestamp;pressure;altitude;pressure_sealevel;temperature;humidity
20444;BME280;10381;53.730;10.010;2023-09-19T00:01:32;99076.75;;;15.68;100.00
20444;BME280;10381;53.730;10.010;2023-09-19T00:05:36;99074.09;;;15.62;100.00
20444;BME280;10381;53.730;10.010;2023-09-19T00:09:38;99074.72;;;15.64;100.00
20444;BME280;10381;53.730;10.010;2023-09-19T00:13:38;99072.06;;;15.50;100.00
20444;BME280;10381;53.730;10.010;2023-09-19T00:17:39;99071.63;;;15.60;100.00
20444;BME280;10381;53.730;10.010;2023-09-19T00:21:40;99069.16;;;15.79;100.00
20444;BME280;10381;53.730;10.010;2023-09-19T00:25:41;99091.72;;;15.69;100.00
20444;BME280;10381;53.730;10.010;2023-09-19T00:29:42;99109.19;;;15.79;100.00
20444;BME280;10381;53.730;10.010;2023-09-19T00:33:42;99132.81;;;15.68;100.00
20444;BME280;10381;53.730;10.010;2023-09-19T00:37:43;99136.09;;;15.70;100.00
20444;BME280;10381;53.730;10.010;2023-09-19T00:41:43;99125.25;;;15.59;100.00
20444;BME280;10381;53.730;10.010;2023-09-19T00:45:47;99124.84;;;15.55;100.00
20444;BME280;10381;53.730;10.010;2023-09-19T00:49:48;99103.09;;;15.38;100.00
20444;BME280;10381;53.730;10.010;2023-09-19T00:53:53;99095.50;;;15.42;100.00
20444;BME280;10381;53.730;10.010;2023-09-19T00:57:55;99084.84;;;15.35;100.00
20444;BME280;10381;53.730;10.010;2023-09-19T01:01:56;99085.25;;;15.39;100.00
20444;BME280;10381;53.730;10.010;2023-09-19T01:05:57;99090.13;;;15.55;100.00
20444;BME280;10381;53.730;10.010;2023-09-19T01:09:57;99084.22;;;15.40;100.00
20444;BME280;10381;53.730;10.010;2023-09-19T01:22:32;99069.28;;;15.19;100.00
20444;BME280;10381;53.730;10.010;2023-09-19T01:31:06;99062.91;;;15.20;100.00
20444;BME280;10381;53.730;10.010;2023-09-19T01:35:09;99055.31;;;15.10;100.00
20444;BME280;10381;53.730;10.010;2023-09-19T01:39:13;99051.44;;;15.06;100.00
20444;BME280;10381;53.730;10.010;2023-09-19T01:43:20;99049.19;;;15.03;100.00
20444;BME280;10381;53.730;10.010;2023-09-19T01:47:32;99064.78;;;14.99;100.00
20444;BME280;10381;53.730;10.010;2023-09-19T01:51:56;99056.97;;;15.04;100.00
20444;BME280;10381;53.730;10.010;2023-09-19T01:56:00;99067.66;;;14.98;100.00
20444;BME280;10381;53.730;10.010;2023-09-19T02:00:07;99077.88;;;15.01;100.00
20444;BME280;10381;53.730;10.010;2023-09-19T02:04:09;99080.16;;;15.04;100.00
20444;BME280;10381;53.730;10.010;2023-09-19T02:16:30;99091.03;;;14.76;100.00
20444;BME280;10381;53.730;10.010;2023-09-19T02:20:30;99100.44;;;14.72;100.00
20444;BME280;10381;53.730;10.010;2023-09-19T02:24:33;99110.28;;;14.64;100.00
20444;BME280;10381;53.730;10.010;2023-09-19T02:28:34;99115.66;;;14.78;100.00
20444;BME280;10381;53.730;10.010;2023-09-19T02:32:35;99118.91;;;14.66;100.00
20444;BME280;10381;53.730;10.010;2023-09-19T02:36:38;99133.28;;;14.72;100.00
20444;BME280;10381;53.730;10.010;2023-09-19T02:40:39;99163.19;;;14.61;100.00
20444;BME280;10381;53.730;10.010;2023-09-19T02:44:39;99182.84;;;14.60;100.00
20444;BME280;10381;53.730;10.010;2023-09-19T02:48:40;99195.38;;;14.66;100.00
20444;BME280;10381;53.730;10.010;2023-09-19T02:52:44;99203.56;;;14.58;100.00
20444;BME280;10381;53.730;10.010;2023-09-19T02:56:44;99196.94;;;14.47;100.00
20444;BME280;10381;53.730;10.010;2023-09-19T03:00:45;99191.19;;;14.50;100.00
20444;BME280;10381;53.730;10.010;2023-09-19T03:04:51;99178.13;;;14.62;100.00
20444;BME280;10381;53.730;10.010;2023-09-19T03:08:51;99178.34;;;14.67;100.00
20444;BME280;10381;53.730;10.010;2023-09-19T03:12:52;99191.91;;;14.65;100.00
20444;BME280;10381;53.730;10.010;2023-09-19T03:16:52;99198.03;;;14.66;100.00
20444;BME280;10381;53.730;10.010;2023-09-19T03:20:56;99209.56;;;14.73;100.00
20444;BME280;10381;53.730;10.010;2023-09-19T03:24:56;99219.78;;;14.69;100.00
20444;BME280;10381;53.730;10.010;2023-09-19T03:28:56;99228.22;;;14.73;100.00
20444;BME280;10381;53.730;10.010;2023-09-19T03:32:57;99250.31;;;14.67;100.00
20444;BME280;10381;53.730;10.010;2023-09-19T03:36:57;99262.66;;;14.68;100.00
20444;BME280;10381;53.730;10.010;2023-09-19T03:40:57;99292.53;;;14.57;100.00
20444;BME280;10381;53.730;10.010;2023-09-19T03:44:58;99301.22;;;14.37;100.00
20444;BME280;10381;53.730;10.010;2023-09-19T03:48:59;99302.66;;;14.40;100.00
20444;BME280;10381;53.730;10.010;2023-09-19T03:53:00;99315.56;;;14.36;100.00
20444;BME280;10381;53.730;10.010;2023-09-19T03:57:00;99333.63;;;14.47;100.00
20444;BME280;10381;53.730;10.010;2023-09-19T04:01:00;99332.38;;;14.37;100.00
20444;BME280;10381;53.730;10.010;2023-09-19T04:05:00;99380.75;;;14.40;100.00
20444;BME280;10381;53.730;10.010;2023-09-19T04:09:03;99434.25;;;14.39;100.00
20444;BME280;10381;53.730;10.010;2023-09-19T04:13:04;99465.97;;;14.34;100.00
20444;BME280;10381;53.730;10.010;2023-09-19T04:17:04;99506.50;;;14.29;100.00
20444;BME280;10381;53.730;10.010;2023-09-19T04:21:05;99514.28;;;14.31;100.00
20444;BME280;10381;53.730;10.010;2023-09-19T04:25:06;99511.84;;;14.29;100.00
20444;BME280;10381;53.730;10.010;2023-09-19T04:29:09;99514.50;;;14.29;100.00
20444;BME280;10381;53.730;10.010;2023-09-19T04:33:11;99529.38;;;14.23;100.00
20444;BME280;10381;53.730;10.010;2023-09-19T04:37:14;99557.91;;;14.08;100.00
20444;BME280;10381;53.730;10.010;2023-09-19T04:41:15;99572.53;;;13.97;100.00
20444;BME280;10381;53.730;10.010;2023-09-19T04:45:15;99590.91;;;13.92;100.00
20444;BME280;10381;53.730;10.010;2023-09-19T04:49:16;99619.84;;;13.80;100.00
20444;BME280;10381;53.730;10.010;2023-09-19T04:53:17;99616.00;;;13.68;100.00
20444;BME280;10381;53.730;10.010;2023-09-19T04:57:18;99638.69;;;13.64;100.00
20444;BME280;10381;53.730;10.010;2023-09-19T05:01:19;99629.84;;;13.49;100.00
20444;BME280;10381;53.730;10.010;2023-09-19T05:05:23;99624.09;;;13.45;100.00
20444;BME280;10381;53.730;10.010;2023-09-19T05:09:23;99610.13;;;13.43;100.00
20444;BME280;10381;53.730;10.010;2023-09-19T05:13:25;99616.94;;;13.22;100.00
20444;BME280;10381;53.730;10.010;2023-09-19T05:17:26;99592.59;;;13.34;100.00
20444;BME280;10381;53.730;10.010;2023-09-19T05:21:26;99603.63;;;13.31;100.00
20444;BME280;10381;53.730;10.010;2023-09-19T05:25:34;99599.34;;;13.21;100.00
20444;BME280;10381;53.730;10.010;2023-09-19T05:29:38;99597.34;;;13.24;100.00
20444;BME280;10381;53.730;10.010;2023-09-19T05:33:38;99600.16;;;13.07;100.00
20444;BME280;10381;53.730;10.010;2023-09-19T05:37:38;99601.09;;;13.14;100.00
20444;BME280;10381;53.730;10.010;2023-09-19T05:41:39;99618.63;;;13.24;100.00
20444;BME280;10381;53.730;10.010;2023-09-19T05:45:40;99619.94;;;13.28;100.00
20444;BME280;10381;53.730;10.010;2023-09-19T05:49:41;99661.94;;;13.32;100.00
20444;BME280;10381;53.730;10.010;2023-09-19T05:53:41;99662.25;;;13.37;100.00
20444;BME280;10381;53.730;10.010;2023-09-19T05:57:49;99679.97;;;13.45;100.00
20444;BME280;10381;53.730;10.010;2023-09-19T06:01:50;99696.47;;;13.55;100.00
20444;BME280;10381;53.730;10.010;2023-09-19T06:05:52;99705.31;;;13.71;100.00
20444;BME280;10381;53.730;10.010;2023-09-19T06:09:57;99721.47;;;13.84;100.00
20444;BME280;10381;53.730;10.010;2023-09-19T06:13:57;99762.06;;;13.86;100.00
20444;BME280;10381;53.730;10.010;2023-09-19T06:17:58;99779.88;;;14.00;100.00
20444;BME280;10381;53.730;10.010;2023-09-19T06:21:59;99794.75;;;13.95;100.00
20444;BME280;10381;53.730;10.010;2023-09-19T06:25:59;99807.06;;;13.96;100.00
20444;BME280;10381;53.730;10.010;2023-09-19T06:30:00;99805.59;;;13.93;100.00
20444;BME280;10381;53.730;10.010;2023-09-19T06:34:01;99802.66;;;13.88;100.00
20444;BME280;10381;53.730;10.010;2023-09-19T06:38:04;99793.28;;;13.92;100.00
20444;BME280;10381;53.730;10.010;2023-09-19T06:42:04;99798.41;;;13.94;100.00
20444;BME280;10381;53.730;10.010;2023-09-19T06:46:05;99800.16;;;14.01;100.00
20444;BME280;10381;53.730;10.010;2023-09-19T06:50:07;99791.38;;;14.01;100.00
20444;BME280;10381;53.730;10.010;2023-09-19T06:54:13;99831.69;;;14.13;100.00
20444;BME280;10381;53.730;10.010;2023-09-19T06:58:13;99848.88;;;14.10;100.00
20444;BME280;10381;53.730;10.010;2023-09-19T07:02:16;99885.78;;;14.13;100.00
20444;BME280;10381;53.730;10.010;2023-09-19T07:06:17;99884.59;;;14.16;100.00
20444;BME280;10381;53.730;10.010;2023-09-19T07:10:17;99891.03;;;14.21;100.00
20444;BME280;10381;53.730;10.010;2023-09-19T07:14:18;99891.22;;;14.20;100.00
20444;BME280;10381;53.730;10.010;2023-09-19T07:18:18;99907.41;;;14.33;100.00
20444;BME280;10381;53.730;10.010;2023-09-19T07:22:20;99916.31;;;14.40;100.00
20444;BME280;10381;53.730;10.010;2023-09-19T07:26:20;99919.00;;;14.40;100.00
20444;BME280;10381;53.730;10.010;2023-09-19T07:30:20;99917.63;;;14.44;100.00
20444;BME280;10381;53.730;10.010;2023-09-19T07:34:20;99921.03;;;14.53;100.00
20444;BME280;10381;53.730;10.010;2023-09-19T07:38:23;99931.88;;;14.52;100.00
20444;BME280;10381;53.730;10.010;2023-09-19T07:42:23;99926.47;;;14.60;100.00
20444;BME280;10381;53.730;10.010;2023-09-19T07:46:23;99927.88;;;14.56;100.00
20444;BME280;10381;53.730;10.010;2023-09-19T07:50:24;99925.25;;;14.47;100.00
20444;BME280;10381;53.730;10.010;2023-09-19T07:54:26;99904.78;;;14.48;100.00
20444;BME280;10381;53.730;10.010;2023-09-19T07:58:27;99912.88;;;14.55;100.00
20444;BME280;10381;53.730;10.010;2023-09-19T08:02:27;99912.16;;;14.61;100.00
20444;BME280;10381;53.730;10.010;2023-09-19T08:06:28;99946.38;;;14.72;100.00
20444;BME280;10381;53.730;10.010;2023-09-19T08:10:30;99971.38;;;14.71;100.00
20444;BME280;10381;53.730;10.010;2023-09-19T08:14:35;99995.72;;;14.68;100.00
20444;BME280;10381;53.730;10.010;2023-09-19T08:18:36;100023.50;;;14.88;100.00
20444;BME280;10381;53.730;10.010;2023-09-19T08:22:37;100061.63;;;14.74;100.00
20444;BME280;10381;53.730;10.010;2023-09-19T08:26:38;100061.59;;;14.82;100.00
20444;BME280;10381;53.730;10.010;2023-09-19T08:30:38;100072.13;;;15.28;100.00
20444;BME280;10381;53.730;10.010;2023-09-19T08:34:40;100079.47;;;14.97;100.00
20444;BME280;10381;53.730;10.010;2023-09-19T08:38:41;100056.38;;;14.89;100.00
20444;BME280;10381;53.730;10.010;2023-09-19T08:42:55;100035.47;;;14.93;100.00
20444;BME280;10381;53.730;10.010;2023-09-19T08:47:01;100023.78;;;14.79;100.00
20444;BME280;10381;53.730;10.010;2023-09-19T08:51:16;100002.44;;;14.64;100.00
20444;BME280;10381;53.730;10.010;2023-09-19T08:55:18;99986.81;;;14.76;100.00
20444;BME280;10381;53.730;10.010;2023-09-19T08:59:22;99973.31;;;14.77;100.00
20444;BME280;10381;53.730;10.010;2023-09-19T09:03:25;100002.81;;;14.76;100.00
20444;BME280;10381;53.730;10.010;2023-09-19T09:07:26;100000.53;;;14.87;100.00
20444;BME280;10381;53.730;10.010;2023-09-19T09:11:28;100013.50;;;14.90;100.00
20444;BME280;10381;53.730;10.010;2023-09-19T09:15:29;100041.63;;;14.93;100.00
20444;BME280;10381;53.730;10.010;2023-09-19T09:19:31;100058.13;;;15.11;100.00
20444;BME280;10381;53.730;10.010;2023-09-19T09:23:32;100076.91;;;15.18;100.00
20444;BME280;10381;53.730;10.010;2023-09-19T09:27:32;100098.59;;;15.15;100.00
20444;BME280;10381;53.730;10.010;2023-09-19T09:31:34;100093.84;;;15.25;100.00
20444;BME280;10381;53.730;10.010;2023-09-19T09:35:34;100131.22;;;15.55;100.00
20444;BME280;10381;53.730;10.010;2023-09-19T09:39:36;100154.59;;;15.53;100.00
20444;BME280;10381;53.730;10.010;2023-09-19T09:43:38;100162.16;;;15.64;100.00
20444;BME280;10381;53.730;10.010;2023-09-19T09:47:45;100180.50;;;15.97;100.00
20444;BME280;10381;53.730;10.010;2023-09-19T09:52:02;100202.16;;;16.02;100.00
20444;BME280;10381;53.730;10.010;2023-09-19T09:56:17;100211.06;;;15.94;100.00
20444;BME280;10381;53.730;10.010;2023-09-19T10:00:18;100215.84;;;16.80;100.00
20444;BME280;10381;53.730;10.010;2023-09-19T10:04:27;100236.81;;;16.47;100.00
20444;BME280;10381;53.730;10.010;2023-09-19T10:08:36;100248.50;;;16.24;100.00
20444;BME280;10381;53.730;10.010;2023-09-19T10:12:42;100266.81;;;16.27;100.00
20444;BME280;10381;53.730;10.010;2023-09-19T10:16:46;100277.97;;;16.46;100.00
20444;BME280;10381;53.730;10.010;2023-09-19T10:20:47;100281.75;;;16.36;100.00
20444;BME280;10381;53.730;10.010;2023-09-19T10:24:49;100275.91;;;16.63;100.00
20444;BME280;10381;53.730;10.010;2023-09-19T10:28:53;100285.97;;;16.60;100.00
20444;BME280;10381;53.730;10.010;2023-09-19T10:33:04;100312.06;;;16.44;100.00
20444;BME280;10381;53.730;10.010;2023-09-19T10:37:06;100333.25;;;16.75;100.00
20444;BME280;10381;53.730;10.010;2023-09-19T10:41:10;100325.03;;;16.61;100.00
20444;BME280;10381;53.730;10.010;2023-09-19T10:45:15;100345.41;;;16.92;100.00
20444;BME280;10381;53.730;10.010;2023-09-19T10:49:19;100318.44;;;17.30;100.00
20444;BME280;10381;53.730;10.010;2023-09-19T10:53:20;100336.19;;;16.95;100.00
20444;BME280;10381;53.730;10.010;2023-09-19T10:57:24;100344.94;;;16.74;100.00
20444;BME280;10381;53.730;10.010;2023-09-19T11:01:42;100340.38;;;17.19;100.00
20444;BME280;10381;53.730;10.010;2023-09-19T11:05:42;100344.63;;;17.13;100.00
20444;BME280;10381;53.730;10.010;2023-09-19T11:09:54;100362.81;;;17.18;100.00
20444;BME280;10381;53.730;10.010;2023-09-19T11:27:10;100349.34;;;17.11;100.00
20444;BME280;10381;53.730;10.010;2023-09-19T11:31:42;100346.56;;;17.41;100.00
20444;BME280;10381;53.730;10.010;2023-09-19T11:40:09;100353.56;;;16.84;100.00
20444;BME280;10381;53.730;10.010;2023-09-19T11:48:18;100355.13;;;17.30;100.00
20444;BME280;10381;53.730;10.010;2023-09-19T11:52:22;100360.06;;;17.97;100.00
20444;BME280;10381;53.730;10.010;2023-09-19T11:56:25;100389.94;;;17.15;100.00
20444;BME280;10381;53.730;10.010;2023-09-19T12:00:27;100379.97;;;17.45;100.00
20444;BME280;10381;53.730;10.010;2023-09-19T12:08:39;100383.81;;;17.57;100.00
20444;BME280;10381;53.730;10.010;2023-09-19T12:12:40;100392.38;;;17.31;100.00
20444;BME280;10381;53.730;10.010;2023-09-19T12:16:51;100412.81;;;17.32;100.00
20444;BME280;10381;53.730;10.010;2023-09-19T12:20:55;100403.00;;;17.39;100.00
20444;BME280;10381;53.730;10.010;2023-09-19T12:25:05;100395.16;;;17.38;100.00
20444;BME280;10381;53.730;10.010;2023-09-19T12:29:12;100405.16;;;17.72;100.00
20444;BME280;10381;53.730;10.010;2023-09-19T12:33:17;100420.09;;;17.60;100.00
20444;BME280;10381;53.730;10.010;2023-09-19T12:37:20;100433.81;;;17.72;100.00
20444;BME280;10381;53.730;10.010;2023-09-19T12:41:27;100430.97;;;17.95;100.00
20444;BME280;10381;53.730;10.010;2023-09-19T12:45:29;100433.09;;;17.99;100.00
20444;BME280;10381;53.730;10.010;2023-09-19T12:49:31;100439.72;;;18.31;100.00
20444;BME280;10381;53.730;10.010;2023-09-19T12:53:45;100439.66;;;18.25;100.00
20444;BME280;10381;53.730;10.010;2023-09-19T13:02:12;100449.75;;;17.95;100.00
20444;BME280;10381;53.730;10.010;2023-09-19T13:06:38;100438.88;;;18.03;100.00
20444;BME280;10381;53.730;10.010;2023-09-19T13:11:00;100442.00;;;18.06;100.00
20444;BME280;10381;53.730;10.010;2023-09-19T13:15:10;100441.81;;;17.86;100.00
20444;BME280;10381;53.730;10.010;2023-09-19T13:19:43;100434.16;;;17.83;100.00
20444;BME280;10381;53.730;10.010;2023-09-19T13:23:51;100415.25;;;18.13;100.00
20444;BME280;10381;53.730;10.010;2023-09-19T13:27:54;100423.69;;;18.10;100.00
20444;BME280;10381;53.730;10.010;2023-09-19T13:31:55;100425.41;;;17.96;100.00
20444;BME280;10381;53.730;10.010;2023-09-19T13:35:56;100424.25;;;18.05;100.00
20444;BME280;10381;53.730;10.010;2023-09-19T13:39:57;100423.13;;;17.93;100.00
20444;BME280;10381;53.730;10.010;2023-09-19T13:43:57;100408.66;;;17.87;100.00
20444;BME280;10381;53.730;10.010;2023-09-19T13:47:58;100415.63;;;18.10;100.00
20444;BME280;10381;53.730;10.010;2023-09-19T13:52:02;100407.75;;;18.02;100.00
20444;BME280;10381;53.730;10.010;2023-09-19T13:56:05;100389.00;;;18.37;100.00
20444;BME280;10381;53.730;10.010;2023-09-19T14:00:05;100393.09;;;18.33;100.00
20444;BME280;10381;53.730;10.010;2023-09-19T14:04:10;100395.53;;;18.27;100.00
20444;BME280;10381;53.730;10.010;2023-09-19T14:08:11;100406.38;;;18.76;100.00
20444;BME280;10381;53.730;10.010;2023-09-19T14:12:13;100393.97;;;18.33;100.00
20444;BME280;10381;53.730;10.010;2023-09-19T14:16:16;100396.19;;;18.29;100.00
20444;BME280;10381;53.730;10.010;2023-09-19T14:20:18;100399.03;;;18.21;100.00
20444;BME280;10381;53.730;10.010;2023-09-19T14:24:19;100401.72;;;18.21;100.00
20444;BME280;10381;53.730;10.010;2023-09-19T14:28:21;100383.19;;;18.26;100.00
20444;BME280;10381;53.730;10.010;2023-09-19T14:32:21;100391.06;;;18.35;100.00
20444;BME280;10381;53.730;10.010;2023-09-19T14:36:22;100380.16;;;18.08;100.00
20444;BME280;10381;53.730;10.010;2023-09-19T14:40:22;100372.16;;;18.15;100.00
20444;BME280;10381;53.730;10.010;2023-09-19T14:44:22;100380.06;;;17.95;100.00
20444;BME280;10381;53.730;10.010;2023-09-19T14:48:23;100386.56;;;17.85;100.00
20444;BME280;10381;53.730;10.010;2023-09-19T14:52:26;100378.06;;;17.82;100.00
20444;BME280;10381;53.730;10.010;2023-09-19T14:56:28;100385.59;;;17.93;100.00
20444;BME280;10381;53.730;10.010;2023-09-19T15:00:30;100386.00;;;18.18;100.00
20444;BME280;10381;53.730;10.010;2023-09-19T15:04:30;100383.09;;;17.92;100.00
20444;BME280;10381;53.730;10.010;2023-09-19T15:08:31;100381.13;;;18.00;100.00
20444;BME280;10381;53.730;10.010;2023-09-19T15:12:34;100361.63;;;17.85;100.00
20444;BME280;10381;53.730;10.010;2023-09-19T15:16:35;100357.56;;;17.74;100.00
20444;BME280;10381;53.730;10.010;2023-09-19T15:20:35;100358.38;;;17.68;100.00
20444;BME280;10381;53.730;10.010;2023-09-19T15:24:36;100349.75;;;17.73;100.00
20444;BME280;10381;53.730;10.010;2023-09-19T15:28:36;100348.91;;;17.72;100.00
20444;BME280;10381;53.730;10.010;2023-09-19T15:32:37;100343.88;;;17.62;100.00
20444;BME280;10381;53.730;10.010;2023-09-19T15:36:38;100333.88;;;17.50;100.00
20444;BME280;10381;53.730;10.010;2023-09-19T15:40:46;100334.44;;;17.45;100.00
20444;BME280;10381;53.730;10.010;2023-09-19T15:44:46;100325.09;;;17.34;100.00
20444;BME280;10381;53.730;10.010;2023-09-19T15:48:49;100322.13;;;17.29;100.00
20444;BME280;10381;53.730;10.010;2023-09-19T15:52:53;100309.03;;;17.34;100.00
20444;BME280;10381;53.730;10.010;2023-09-19T15:56:55;100310.16;;;17.46;100.00
20444;BME280;10381;53.730;10.010;2023-09-19T16:00:55;100292.63;;;17.44;100.00
20444;BME280;10381;53.730;10.010;2023-09-19T16:04:56;100304.66;;;17.55;100.00
20444;BME280;10381;53.730;10.010;2023-09-19T16:08:58;100305.31;;;17.57;100.00
20444;BME280;10381;53.730;10.010;2023-09-19T16:12:58;100304.47;;;17.56;100.00
20444;BME280;10381;53.730;10.010;2023-09-19T16:16:59;100320.31;;;17.51;100.00
20444;BME280;10381;53.730;10.010;2023-09-19T16:21:03;100321.78;;;17.54;100.00
20444;BME280;10381;53.730;10.010;2023-09-19T16:25:04;100311.22;;;17.52;100.00
20444;BME280;10381;53.730;10.010;2023-09-19T16:29:04;100319.09;;;17.54;100.00
20444;BME280;10381;53.730;10.010;2023-09-19T16:33:05;100318.50;;;17.58;100.00
20444;BME280;10381;53.730;10.010;2023-09-19T16:37:05;100328.84;;;17.61;100.00
20444;BME280;10381;53.730;10.010;2023-09-19T16:41:06;100322.44;;;17.62;100.00
20444;BME280;10381;53.730;10.010;2023-09-19T16:45:08;100317.28;;;17.61;100.00
20444;BME280;10381;53.730;10.010;2023-09-19T16:49:10;100329.41;;;17.57;100.00
20444;BME280;10381;53.730;10.010;2023-09-19T16:53:10;100325.28;;;17.54;100.00
20444;BME280;10381;53.730;10.010;2023-09-19T16:57:11;100324.88;;;17.57;100.00
20444;BME280;10381;53.730;10.010;2023-09-19T17:01:13;100325.38;;;17.46;100.00
20444;BME280;10381;53.730;10.010;2023-09-19T17:05:13;100322.34;;;17.49;100.00
20444;BME280;10381;53.730;10.010;2023-09-19T17:09:15;100320.66;;;17.48;100.00
20444;BME280;10381;53.730;10.010;2023-09-19T17:13:15;100318.84;;;17.49;100.00
20444;BME280;10381;53.730;10.010;2023-09-19T17:17:16;100335.91;;;17.48;100.00
20444;BME280;10381;53.730;10.010;2023-09-19T17:21:16;100325.38;;;17.46;100.00
20444;BME280;10381;53.730;10.010;2023-09-19T17:25:17;100324.38;;;17.47;100.00
20444;BME280;10381;53.730;10.010;2023-09-19T17:29:17;100323.59;;;17.53;100.00
20444;BME280;10381;53.730;10.010;2023-09-19T17:33:18;100326.41;;;17.45;100.00
20444;BME280;10381;53.730;10.010;2023-09-19T17:37:18;100325.19;;;17.48;100.00
20444;BME280;10381;53.730;10.010;2023-09-19T17:41:19;100325.69;;;17.58;100.00
20444;BME280;10381;53.730;10.010;2023-09-19T17:45:23;100331.63;;;17.53;100.00
20444;BME280;10381;53.730;10.010;2023-09-19T17:49:23;100329.34;;;17.50;100.00
20444;BME280;10381;53.730;10.010;2023-09-19T17:53:23;100333.97;;;17.63;100.00
20444;BME280;10381;53.730;10.010;2023-09-19T17:57:24;100326.03;;;17.48;100.00
20444;BME280;10381;53.730;10.010;2023-09-19T18:01:26;100333.72;;;17.58;100.00
20444;BME280;10381;53.730;10.010;2023-09-19T18:05:28;100340.13;;;17.57;100.00
20444;BME280;10381;53.730;10.010;2023-09-19T18:09:29;100344.69;;;17.63;100.00
20444;BME280;10381;53.730;10.010;2023-09-19T18:13:29;100340.13;;;17.57;100.00
20444;BME280;10381;53.730;10.010;2023-09-19T18:17:30;100336.63;;;17.56;100.00
20444;BME280;10381;53.730;10.010;2023-09-19T18:21:35;100342.97;;;17.55;100.00
20444;BME280;10381;53.730;10.010;2023-09-19T18:25:35;100355.41;;;17.63;100.00
20444;BME280;10381;53.730;10.010;2023-09-19T18:29:37;100354.59;;;17.62;100.00
20444;BME280;10381;53.730;10.010;2023-09-19T18:33:42;100357.22;;;17.56;100.00
20444;BME280;10381;53.730;10.010;2023-09-19T18:37:43;100350.91;;;17.63;100.00
20444;BME280;10381;53.730;10.010;2023-09-19T18:41:46;100350.00;;;17.56;100.00
20444;BME280;10381;53.730;10.010;2023-09-19T18:45:56;100357.81;;;17.51;100.00
20444;BME280;10381;53.730;10.010;2023-09-19T18:49:57;100357.22;;;17.56;100.00
20444;BME280;10381;53.730;10.010;2023-09-19T18:53:58;100361.97;;;17.60;100.00
20444;BME280;10381;53.730;10.010;2023-09-19T18:58:00;100358.22;;;17.55;100.00
20444;BME280;10381;53.730;10.010;2023-09-19T19:02:01;100354.47;;;17.49;100.00
20444;BME280;10381;53.730;10.010;2023-09-19T19:06:07;100348.34;;;17.55;100.00
20444;BME280;10381;53.730;10.010;2023-09-19T19:10:08;100345.41;;;17.50;100.00
20444;BME280;10381;53.730;10.010;2023-09-19T19:14:08;100352.44;;;17.51;100.00
20444;BME280;10381;53.730;10.010;2023-09-19T19:18:10;100340.88;;;17.51;100.00
20444;BME280;10381;53.730;10.010;2023-09-19T19:22:10;100349.47;;;17.46;100.00
20444;BME280;10381;53.730;10.010;2023-09-19T19:26:11;100342.41;;;17.38;100.00
20444;BME280;10381;53.730;10.010;2023-09-19T19:30:13;100344.59;;;17.50;100.00
20444;BME280;10381;53.730;10.010;2023-09-19T19:34:17;100354.03;;;17.45;100.00
20444;BME280;10381;53.730;10.010;2023-09-19T19:38:17;100349.88;;;17.43;100.00
20444;BME280;10381;53.730;10.010;2023-09-19T19:42:17;100346.63;;;17.48;100.00
20444;BME280;10381;53.730;10.010;2023-09-19T19:46:17;100345.34;;;17.43;100.00
20444;BME280;10381;53.730;10.010;2023-09-19T19:50:18;100351.72;;;17.42;100.00
20444;BME280;10381;53.730;10.010;2023-09-19T19:54:19;100349.81;;;17.36;100.00
20444;BME280;10381;53.730;10.010;2023-09-19T19:58:19;100346.31;;;17.36;100.00
20444;BME280;10381;53.730;10.010;2023-09-19T20:02:21;100339.38;;;17.41;100.00
20444;BME280;10381;53.730;10.010;2023-09-19T20:06:22;100336.16;;;17.31;100.00
20444;BME280;10381;53.730;10.010;2023-09-19T20:10:24;100334.25;;;17.25;100.00
20444;BME280;10381;53.730;10.010;2023-09-19T20:14:24;100326.59;;;17.22;100.00
20444;BME280;10381;53.730;10.010;2023-09-19T20:18:25;100322.44;;;17.19;100.00
20444;BME280;10381;53.730;10.010;2023-09-19T20:22:26;100307.59;;;17.17;100.00
20444;BME280;10381;53.730;10.010;2023-09-19T20:26:26;100317.88;;;17.13;100.00
20444;BME280;10381;53.730;10.010;2023-09-19T20:30:26;100315.53;;;17.25;100.00
20444;BME280;10381;53.730;10.010;2023-09-19T20:34:27;100307.25;;;17.20;100.00
20444;BME280;10381;53.730;10.010;2023-09-19T20:38:27;100309.38;;;17.31;100.00
20444;BME280;10381;53.730;10.010;2023-09-19T20:42:27;100317.94;;;17.20;100.00
20444;BME280;10381;53.730;10.010;2023-09-19T20:46:27;100317.47;;;17.16;100.00
20444;BME280;10381;53.730;10.010;2023-09-19T20:50:28;100297.22;;;17.07;100.00
20444;BME280;10381;53.730;10.010;2023-09-19T20:54:28;100277.31;;;16.95;100.00
20444;BME280;10381;53.730;10.010;2023-09-19T20:58:28;100249.69;;;16.73;100.00
20444;BME280;10381;53.730;10.010;2023-09-19T21:02:29;100212.38;;;16.65;100.00
20444;BME280;10381;53.730;10.010;2023-09-19T21:06:29;100180.84;;;16.60;100.00
20444;BME280;10381;53.730;10.010;2023-09-19T21:10:30;100173.00;;;16.58;100.00
20444;BME280;10381;53.730;10.010;2023-09-19T21:14:31;100171.59;;;16.63;100.00
20444;BME280;10381;53.730;10.010;2023-09-19T21:18:31;100177.38;;;16.66;100.00
20444;BME280;10381;53.730;10.010;2023-09-19T21:22:32;100146.38;;;16.50;100.00
20444;BME280;10381;53.730;10.010;2023-09-19T21:26:32;100153.88;;;16.61;100.00
20444;BME280;10381;53.730;10.010;2023-09-19T21:30:32;100140.91;;;16.58;100.00